sensor_id;sensor_type;location;lat;lon;timestamp;P1;durP1;ratioP1;P2;durP2;ratioP2
17193;SDS011;8713;48.388;10.928;2022-07-29T00:00:10;2.45;;;1.38;;
17193;SDS011;8713;48.388;10.928;2022-07-29T00:01:20;2.45;;;1.20;;
17193;SDS011;8713;48.388;10.928;2022-07-29T00:02:30;2.38;;;1.35;;
17193;SDS011;8713;48.388;10.928;2022-07-29T00:03:40;3.47;;;1.35;;
17193;SDS011;8713;48.388;10.928;2022-07-29T00:04:50;3.20;;;1.30;;
17193;SDS011;8713;48.388;10.928;2022-07-29T00:05:59;1.80;;;1.40;;
17193;SDS011;8713;48.388;10.928;2022-07-29T00:07:09;1.85;;;1.25;;
17193;SDS011;8713;48.388;10.928;2022-07-29T00:08:18;1.67;;;1.15;;
17193;SDS011;8713;48.388;10.928;2022-07-29T00:09:27;2.70;;;1.25;;
17193;SDS011;8713;48.388;10.928;2022-07-29T00:10:37;1.83;;;1.35;;
17193;SDS011;8713;48.388;10.928;2022-07-29T00:11:47;3.53;;;1.20;;
17193;SDS011;8713;48.388;10.928;2022-07-29T00:13:15;3.60;;;1.40;;
17193;SDS011;8713;48.388;10.928;2022-07-29T00:14:43;2.92;;;1.30;;
17193;SDS011;8713;48.388;10.928;2022-07-29T00:16:11;2.30;;;1.20;;
17193;SDS011;8713;48.388;10.928;2022-07-29T00:17:40;3.33;;;1.38;;
17193;SDS011;8713;48.388;10.928;2022-07-29T00:19:10;3.17;;;1.35;;
17193;SDS011;8713;48.388;10.928;2022-07-29T00:20:40;3.40;;;1.40;;
17193;SDS011;8713;48.388;10.928;2022-07-29T00:22:09;3.63;;;1.25;;
17193;SDS011;8713;48.388;10.928;2022-07-29T00:23:39;1.80;;;1.27;;
17193;SDS011;8713;48.388;10.928;2022-07-29T00:25:08;2.13;;;1.48;;
17193;SDS011;8713;48.388;10.928;2022-07-29T00:26:38;2.20;;;1.50;;
17193;SDS011;8713;48.388;10.928;2022-07-29T00:28:07;2.42;;;1.30;;
17193;SDS011;8713;48.388;10.928;2022-07-29T00:29:37;2.42;;;1.20;;
17193;SDS011;8713;48.388;10.928;2022-07-29T00:31:06;3.15;;;1.40;;
17193;SDS011;8713;48.388;10.928;2022-07-29T00:32:36;3.72;;;1.40;;
17193;SDS011;8713;48.388;10.928;2022-07-29T00:34:06;2.45;;;1.27;;
17193;SDS011;8713;48.388;10.928;2022-07-29T00:35:55;2.60;;;1.38;;
17193;SDS011;8713;48.388;10.928;2022-07-29T00:37:25;2.25;;;1.52;;
17193;SDS011;8713;48.388;10.928;2022-07-29T00:38:54;2.42;;;1.42;;
17193;SDS011;8713;48.388;10.928;2022-07-29T00:40:24;1.77;;;1.30;;
17193;SDS011;8713;48.388;10.928;2022-07-29T00:41:54;2.95;;;1.25;;
17193;SDS011;8713;48.388;10.928;2022-07-29T00:43:23;2.00;;;1.25;;
17193;SDS011;8713;48.388;10.928;2022-07-29T00:44:53;3.00;;;1.45;;
17193;SDS011;8713;48.388;10.928;2022-07-29T00:46:23;2.20;;;1.70;;
17193;SDS011;8713;48.388;10.928;2022-07-29T00:47:52;2.05;;;1.60;;
17193;SDS011;8713;48.388;10.928;2022-07-29T00:49:21;3.03;;;1.70;;
17193;SDS011;8713;48.388;10.928;2022-07-29T00:50:51;3.13;;;1.55;;
17193;SDS011;8713;48.388;10.928;2022-07-29T00:52:20;1.95;;;1.40;;
17193;SDS011;8713;48.388;10.928;2022-07-29T00:53:50;2.78;;;1.80;;
17193;SDS011;8713;48.388;10.928;2022-07-29T00:55:19;2.08;;;1.50;;
17193;SDS011;8713;48.388;10.928;2022-07-29T00:56:49;2.53;;;1.50;;
17193;SDS011;8713;48.388;10.928;2022-07-29T00:58:19;4.68;;;1.40;;
17193;SDS011;8713;48.388;10.928;2022-07-29T00:59:48;4.97;;;1.63;;
17193;SDS011;8713;48.388;10.928;2022-07-29T01:01:18;2.17;;;1.48;;
17193;SDS011;8713;48.388;10.928;2022-07-29T01:02:47;2.45;;;1.48;;
17193;SDS011;8713;48.388;10.928;2022-07-29T01:04:17;2.65;;;1.25;;
17193;SDS011;8713;48.388;10.928;2022-07-29T06:47:00;4.18;;;2.05;;
17193;SDS011;8713;48.388;10.928;2022-07-29T06:48:10;5.78;;;2.42;;
17193;SDS011;8713;48.388;10.928;2022-07-29T06:49:20;6.00;;;2.47;;
17193;SDS011;8713;48.388;10.928;2022-07-29T06:50:29;4.18;;;2.45;;
17193;SDS011;8713;48.388;10.928;2022-07-29T06:51:39;4.82;;;2.20;;
17193;SDS011;8713;48.388;10.928;2022-07-29T06:52:48;4.72;;;2.38;;
17193;SDS011;8713;48.388;10.928;2022-07-29T06:53:58;4.72;;;2.38;;
17193;SDS011;8713;48.388;10.928;2022-07-29T06:55:07;5.70;;;2.30;;
17193;SDS011;8713;48.388;10.928;2022-07-29T06:56:17;4.32;;;2.25;;
17193;SDS011;8713;48.388;10.928;2022-07-29T07:22:00;5.22;;;2.60;;
17193;SDS011;8713;48.388;10.928;2022-07-29T07:23:10;5.72;;;2.83;;
17193;SDS011;8713;48.388;10.928;2022-07-29T07:24:19;6.53;;;3.20;;
17193;SDS011;8713;48.388;10.928;2022-07-29T07:25:28;5.25;;;2.88;;
17193;SDS011;8713;48.388;10.928;2022-07-29T07:26:38;7.55;;;2.90;;
17193;SDS011;8713;48.388;10.928;2022-07-29T07:27:48;5.03;;;2.67;;
17193;SDS011;8713;48.388;10.928;2022-07-29T07:28:58;5.57;;;2.72;;
17193;SDS011;8713;48.388;10.928;2022-07-29T07:30:09;6.03;;;2.90;;
17193;SDS011;8713;48.388;10.928;2022-07-29T07:31:19;6.85;;;2.45;;
17193;SDS011;8713;48.388;10.928;2022-07-29T07:32:28;6.07;;;2.67;;
17193;SDS011;8713;48.388;10.928;2022-07-29T07:33:38;4.80;;;2.33;;
17193;SDS011;8713;48.388;10.928;2022-07-29T07:34:47;6.25;;;2.67;;
17193;SDS011;8713;48.388;10.928;2022-07-29T07:35:56;6.53;;;2.90;;
17193;SDS011;8713;48.388;10.928;2022-07-29T07:37:06;4.15;;;2.50;;
17193;SDS011;8713;48.388;10.928;2022-07-29T07:38:15;7.45;;;2.15;;
17193;SDS011;8713;48.388;10.928;2022-07-29T07:39:25;5.22;;;2.45;;
17193;SDS011;8713;48.388;10.928;2022-07-29T07:40:34;5.38;;;2.40;;
17193;SDS011;8713;48.388;10.928;2022-07-29T07:41:44;3.38;;;2.17;;
17193;SDS011;8713;48.388;10.928;2022-07-29T07:42:54;4.72;;;2.35;;
17193;SDS011;8713;48.388;10.928;2022-07-29T07:44:03;5.28;;;2.42;;
17193;SDS011;8713;48.388;10.928;2022-07-29T07:45:12;4.85;;;2.35;;
17193;SDS011;8713;48.388;10.928;2022-07-29T07:46:22;5.18;;;2.33;;
17193;SDS011;8713;48.388;10.928;2022-07-29T07:47:32;5.50;;;2.53;;
17193;SDS011;8713;48.388;10.928;2022-07-29T07:48:41;5.00;;;2.30;;
17193;SDS011;8713;48.388;10.928;2022-07-29T07:49:51;3.80;;;2.03;;
17193;SDS011;8713;48.388;10.928;2022-07-29T07:51:01;3.85;;;2.17;;
17193;SDS011;8713;48.388;10.928;2022-07-29T07:52:10;4.47;;;2.30;;
17193;SDS011;8713;48.388;10.928;2022-07-29T07:53:20;3.42;;;2.10;;
17193;SDS011;8713;48.388;10.928;2022-07-29T07:54:29;5.75;;;2.30;;
17193;SDS011;8713;48.388;10.928;2022-07-29T07:55:40;3.60;;;2.20;;
17193;SDS011;8713;48.388;10.928;2022-07-29T07:56:50;4.38;;;2.10;;
17193;SDS011;8713;48.388;10.928;2022-07-29T07:58:00;4.07;;;2.10;;
17193;SDS011;8713;48.388;10.928;2022-07-29T07:59:09;4.30;;;2.25;;
17193;SDS011;8713;48.388;10.928;2022-07-29T08:00:19;4.13;;;1.83;;
17193;SDS011;8713;48.388;10.928;2022-07-29T08:01:28;4.88;;;2.03;;
17193;SDS011;8713;48.388;10.928;2022-07-29T08:02:38;3.42;;;2.17;;
17193;SDS011;8713;48.388;10.928;2022-07-29T08:03:48;5.97;;;2.17;;
17193;SDS011;8713;48.388;10.928;2022-07-29T08:04:58;2.80;;;1.80;;
17193;SDS011;8713;48.388;10.928;2022-07-29T08:06:08;3.00;;;1.40;;
17193;SDS011;8713;48.388;10.928;2022-07-29T08:07:17;4.63;;;1.88;;
17193;SDS011;8713;48.388;10.928;2022-07-29T08:08:27;2.78;;;1.80;;
17193;SDS011;8713;48.388;10.928;2022-07-29T08:09:37;2.53;;;1.60;;
17193;SDS011;8713;48.388;10.928;2022-07-29T08:10:46;2.95;;;1.75;;
17193;SDS011;8713;48.388;10.928;2022-07-29T08:12:01;3.58;;;1.48;;
17193;SDS011;8713;48.388;10.928;2022-07-29T08:13:12;6.25;;;1.80;;
17193;SDS011;8713;48.388;10.928;2022-07-29T08:14:22;3.65;;;1.70;;
17193;SDS011;8713;48.388;10.928;2022-07-29T08:15:31;1.77;;;1.58;;
17193;SDS011;8713;48.388;10.928;2022-07-29T08:16:41;2.53;;;1.70;;
17193;SDS011;8713;48.388;10.928;2022-07-29T08:17:51;2.58;;;1.52;;
17193;SDS011;8713;48.388;10.928;2022-07-29T08:19:01;3.80;;;1.48;;
17193;SDS011;8713;48.388;10.928;2022-07-29T08:20:10;1.92;;;1.58;;
17193;SDS011;8713;48.388;10.928;2022-07-29T08:21:20;3.15;;;1.60;;
17193;SDS011;8713;48.388;10.928;2022-07-29T08:22:30;2.25;;;1.52;;
17193;SDS011;8713;48.388;10.928;2022-07-29T08:23:39;2.50;;;1.33;;
17193;SDS011;8713;48.388;10.928;2022-07-29T08:24:54;4.03;;;1.70;;
17193;SDS011;8713;48.388;10.928;2022-07-29T08:26:08;2.55;;;1.70;;
17193;SDS011;8713;48.388;10.928;2022-07-29T08:27:19;2.53;;;1.70;;
17193;SDS011;8713;48.388;10.928;2022-07-29T08:28:29;3.97;;;1.80;;
17193;SDS011;8713;48.388;10.928;2022-07-29T08:29:39;2.08;;;1.55;;
17193;SDS011;8713;48.388;10.928;2022-07-29T08:30:48;3.08;;;1.35;;
17193;SDS011;8713;48.388;10.928;2022-07-29T08:31:58;2.90;;;1.60;;
17193;SDS011;8713;48.388;10.928;2022-07-29T08:33:07;3.67;;;1.67;;
17193;SDS011;8713;48.388;10.928;2022-07-29T08:34:17;3.67;;;1.65;;
17193;SDS011;8713;48.388;10.928;2022-07-29T08:35:27;2.47;;;1.67;;
17193;SDS011;8713;48.388;10.928;2022-07-29T08:36:36;3.83;;;1.65;;
17193;SDS011;8713;48.388;10.928;2022-07-29T08:37:45;3.08;;;1.65;;
17193;SDS011;8713;48.388;10.928;2022-07-29T08:38:55;2.78;;;1.65;;
17193;SDS011;8713;48.388;10.928;2022-07-29T08:40:05;2.05;;;1.33;;
17193;SDS011;8713;48.388;10.928;2022-07-29T08:41:14;1.98;;;1.52;;
17193;SDS011;8713;48.388;10.928;2022-07-29T08:42:25;2.10;;;1.70;;
17193;SDS011;8713;48.388;10.928;2022-07-29T08:43:34;2.75;;;1.70;;
17193;SDS011;8713;48.388;10.928;2022-07-29T08:44:46;2.10;;;1.60;;
17193;SDS011;8713;48.388;10.928;2022-07-29T08:45:55;2.92;;;1.67;;
17193;SDS011;8713;48.388;10.928;2022-07-29T08:47:05;2.05;;;1.33;;
17193;SDS011;8713;48.388;10.928;2022-07-29T08:48:14;3.22;;;1.30;;
17193;SDS011;8713;48.388;10.928;2022-07-29T08:49:29;1.65;;;1.20;;
17193;SDS011;8713;48.388;10.928;2022-07-29T08:50:39;3.75;;;1.50;;
17193;SDS011;8713;48.388;10.928;2022-07-29T08:51:49;3.80;;;1.60;;
17193;SDS011;8713;48.388;10.928;2022-07-29T08:52:59;4.03;;;1.75;;
17193;SDS011;8713;48.388;10.928;2022-07-29T08:54:09;2.40;;;1.42;;
17193;SDS011;8713;48.388;10.928;2022-07-29T08:55:19;4.20;;;1.70;;
17193;SDS011;8713;48.388;10.928;2022-07-29T08:56:29;3.38;;;1.83;;
17193;SDS011;8713;48.388;10.928;2022-07-29T08:57:39;2.30;;;1.55;;
17193;SDS011;8713;48.388;10.928;2022-07-29T08:58:48;1.75;;;1.38;;
17193;SDS011;8713;48.388;10.928;2022-07-29T08:59:59;1.40;;;1.30;;
17193;SDS011;8713;48.388;10.928;2022-07-29T09:01:09;1.85;;;1.40;;
17193;SDS011;8713;48.388;10.928;2022-07-29T09:02:21;3.30;;;1.60;;
17193;SDS011;8713;48.388;10.928;2022-07-29T09:03:31;2.17;;;1.38;;
17193;SDS011;8713;48.388;10.928;2022-07-29T09:04:41;2.95;;;1.67;;
17193;SDS011;8713;48.388;10.928;2022-07-29T09:05:51;4.95;;;1.70;;
17193;SDS011;8713;48.388;10.928;2022-07-29T09:07:00;1.67;;;1.25;;
17193;SDS011;8713;48.388;10.928;2022-07-29T09:08:15;2.40;;;1.50;;
17193;SDS011;8713;48.388;10.928;2022-07-29T09:09:25;2.45;;;1.65;;
17193;SDS011;8713;48.388;10.928;2022-07-29T09:10:35;2.05;;;1.70;;
17193;SDS011;8713;48.388;10.928;2022-07-29T09:11:44;1.95;;;1.55;;
17193;SDS011;8713;48.388;10.928;2022-07-29T09:12:54;2.70;;;1.48;;
17193;SDS011;8713;48.388;10.928;2022-07-29T09:14:04;1.90;;;1.55;;
17193;SDS011;8713;48.388;10.928;2022-07-29T09:15:14;2.22;;;1.60;;
17193;SDS011;8713;48.388;10.928;2022-07-29T09:16:23;3.30;;;1.83;;
17193;SDS011;8713;48.388;10.928;2022-07-29T09:17:43;2.40;;;1.60;;
17193;SDS011;8713;48.388;10.928;2022-07-29T09:18:54;2.92;;;1.50;;
17193;SDS011;8713;48.388;10.928;2022-07-29T09:20:16;3.05;;;1.73;;
17193;SDS011;8713;48.388;10.928;2022-07-29T09:21:27;2.38;;;1.73;;
17193;SDS011;8713;48.388;10.928;2022-07-29T09:23:07;3.28;;;1.70;;
17193;SDS011;8713;48.388;10.928;2022-07-29T09:24:17;3.03;;;1.63;;
17193;SDS011;8713;48.388;10.928;2022-07-29T09:25:36;3.13;;;1.67;;
17193;SDS011;8713;48.388;10.928;2022-07-29T09:26:48;3.38;;;1.60;;
17193;SDS011;8713;48.388;10.928;2022-07-29T09:28:05;2.65;;;1.50;;
17193;SDS011;8713;48.388;10.928;2022-07-29T09:29:20;3.53;;;1.70;;
17193;SDS011;8713;48.388;10.928;2022-07-29T09:30:32;3.20;;;1.80;;
17193;SDS011;8713;48.388;10.928;2022-07-29T09:31:43;4.28;;;1.77;;
17193;SDS011;8713;48.388;10.928;2022-07-29T09:32:55;2.08;;;1.50;;
17193;SDS011;8713;48.388;10.928;2022-07-29T09:34:07;2.53;;;1.70;;
17193;SDS011;8713;48.388;10.928;2022-07-29T09:35:22;2.20;;;1.63;;
17193;SDS011;8713;48.388;10.928;2022-07-29T09:36:38;3.40;;;1.80;;
17193;SDS011;8713;48.388;10.928;2022-07-29T09:37:51;2.65;;;2.00;;
17193;SDS011;8713;48.388;10.928;2022-07-29T09:39:01;2.75;;;1.88;;
17193;SDS011;8713;48.388;10.928;2022-07-29T09:40:15;2.55;;;1.90;;
17193;SDS011;8713;48.388;10.928;2022-07-29T09:41:27;2.13;;;1.63;;
17193;SDS011;8713;48.388;10.928;2022-07-29T09:42:36;2.38;;;1.80;;
17193;SDS011;8713;48.388;10.928;2022-07-29T09:45:05;3.22;;;1.55;;
17193;SDS011;8713;48.388;10.928;2022-07-29T09:46:15;1.88;;;1.30;;
17193;SDS011;8713;48.388;10.928;2022-07-29T09:47:27;2.95;;;1.67;;
17193;SDS011;8713;48.388;10.928;2022-07-29T09:49:12;3.40;;;1.60;;
17193;SDS011;8713;48.388;10.928;2022-07-29T09:50:22;3.65;;;1.60;;
17193;SDS011;8713;48.388;10.928;2022-07-29T09:51:47;3.40;;;1.80;;
17193;SDS011;8713;48.388;10.928;2022-07-29T09:53:36;2.78;;;1.50;;
17193;SDS011;8713;48.388;10.928;2022-07-29T09:54:46;2.20;;;1.75;;
17193;SDS011;8713;48.388;10.928;2022-07-29T09:55:56;2.28;;;1.48;;
17193;SDS011;8713;48.388;10.928;2022-07-29T09:57:06;2.38;;;1.60;;
17193;SDS011;8713;48.388;10.928;2022-07-29T09:58:21;4.47;;;1.65;;
17193;SDS011;8713;48.388;10.928;2022-07-29T09:59:31;3.10;;;1.70;;
17193;SDS011;8713;48.388;10.928;2022-07-29T10:00:42;2.47;;;1.50;;
17193;SDS011;8713;48.388;10.928;2022-07-29T10:01:52;2.10;;;1.50;;
17193;SDS011;8713;48.388;10.928;2022-07-29T10:03:01;3.45;;;1.60;;
17193;SDS011;8713;48.388;10.928;2022-07-29T10:04:11;1.75;;;1.50;;
17193;SDS011;8713;48.388;10.928;2022-07-29T10:05:24;4.80;;;1.67;;
17193;SDS011;8713;48.388;10.928;2022-07-29T10:06:55;2.10;;;1.70;;
17193;SDS011;8713;48.388;10.928;2022-07-29T10:08:09;2.30;;;1.50;;
17193;SDS011;8713;48.388;10.928;2022-07-29T10:09:19;3.30;;;1.75;;
17193;SDS011;8713;48.388;10.928;2022-07-29T10:10:33;6.97;;;1.55;;
17193;SDS011;8713;48.388;10.928;2022-07-29T10:11:44;2.60;;;1.55;;
17193;SDS011;8713;48.388;10.928;2022-07-29T10:13:24;3.58;;;1.60;;
17193;SDS011;8713;48.388;10.928;2022-07-29T10:14:34;2.58;;;1.80;;
17193;SDS011;8713;48.388;10.928;2022-07-29T10:15:44;1.80;;;1.65;;
17193;SDS011;8713;48.388;10.928;2022-07-29T10:16:54;2.63;;;1.80;;
17193;SDS011;8713;48.388;10.928;2022-07-29T10:18:04;3.95;;;1.90;;
17193;SDS011;8713;48.388;10.928;2022-07-29T10:19:17;2.10;;;1.70;;
17193;SDS011;8713;48.388;10.928;2022-07-29T10:20:27;3.17;;;1.83;;
17193;SDS011;8713;48.388;10.928;2022-07-29T10:21:36;1.90;;;1.67;;
17193;SDS011;8713;48.388;10.928;2022-07-29T10:22:48;3.65;;;1.73;;
17193;SDS011;8713;48.388;10.928;2022-07-29T10:23:59;2.45;;;1.55;;
17193;SDS011;8713;48.388;10.928;2022-07-29T10:25:08;3.40;;;1.65;;
17193;SDS011;8713;48.388;10.928;2022-07-29T10:26:19;2.10;;;1.85;;
17193;SDS011;8713;48.388;10.928;2022-07-29T10:27:28;3.85;;;1.98;;
17193;SDS011;8713;48.388;10.928;2022-07-29T10:28:38;4.30;;;1.98;;
17193;SDS011;8713;48.388;10.928;2022-07-29T10:29:47;2.83;;;1.67;;
17193;SDS011;8713;48.388;10.928;2022-07-29T10:31:01;2.08;;;1.60;;
17193;SDS011;8713;48.388;10.928;2022-07-29T10:32:32;4.00;;;1.67;;
17193;SDS011;8713;48.388;10.928;2022-07-29T10:34:02;1.90;;;1.40;;
17193;SDS011;8713;48.388;10.928;2022-07-29T10:35:21;3.97;;;1.67;;
17193;SDS011;8713;48.388;10.928;2022-07-29T10:37:17;2.17;;;1.90;;
17193;SDS011;8713;48.388;10.928;2022-07-29T10:39:23;4.07;;;2.03;;
17193;SDS011;8713;48.388;10.928;2022-07-29T10:43:33;4.90;;;1.90;;
17193;SDS011;8713;48.388;10.928;2022-07-29T10:44:46;1.88;;;1.50;;
17193;SDS011;8713;48.388;10.928;2022-07-29T10:45:57;5.05;;;1.77;;
17193;SDS011;8713;48.388;10.928;2022-07-29T10:47:19;2.60;;;1.55;;
17193;SDS011;8713;48.388;10.928;2022-07-29T10:48:32;2.85;;;2.05;;
17193;SDS011;8713;48.388;10.928;2022-07-29T10:49:51;5.63;;;1.90;;
17193;SDS011;8713;48.388;10.928;2022-07-29T10:51:05;4.78;;;1.88;;
17193;SDS011;8713;48.388;10.928;2022-07-29T10:52:16;4.90;;;1.75;;
17193;SDS011;8713;48.388;10.928;2022-07-29T10:54:10;2.00;;;1.70;;
17193;SDS011;8713;48.388;10.928;2022-07-29T10:55:01;2.45;;;1.83;;
17193;SDS011;8713;48.388;10.928;2022-07-29T10:56:26;2.15;;;1.60;;
17193;SDS011;8713;48.388;10.928;2022-07-29T10:57:38;2.15;;;1.73;;
17193;SDS011;8713;48.388;10.928;2022-07-29T10:59:15;3.05;;;1.75;;
17193;SDS011;8713;48.388;10.928;2022-07-29T11:00:29;3.05;;;1.80;;
17193;SDS011;8713;48.388;10.928;2022-07-29T11:01:40;2.60;;;1.65;;
17193;SDS011;8713;48.388;10.928;2022-07-29T11:02:50;4.35;;;1.85;;
17193;SDS011;8713;48.388;10.928;2022-07-29T11:04:03;2.53;;;1.70;;
17193;SDS011;8713;48.388;10.928;2022-07-29T11:05:17;3.55;;;2.03;;
17193;SDS011;8713;48.388;10.928;2022-07-29T11:06:52;3.13;;;1.77;;
17193;SDS011;8713;48.388;10.928;2022-07-29T11:09:21;2.20;;;1.92;;
17193;SDS011;8713;48.388;10.928;2022-07-29T11:10:30;2.90;;;1.98;;
17193;SDS011;8713;48.388;10.928;2022-07-29T11:11:40;4.68;;;2.00;;
17193;SDS011;8713;48.388;10.928;2022-07-29T11:12:50;2.92;;;1.85;;
17193;SDS011;8713;48.388;10.928;2022-07-29T11:13:59;3.45;;;2.00;;
17193;SDS011;8713;48.388;10.928;2022-07-29T11:15:10;2.85;;;2.00;;
17193;SDS011;8713;48.388;10.928;2022-07-29T11:16:25;3.85;;;2.00;;
17193;SDS011;8713;48.388;10.928;2022-07-29T11:18:15;2.85;;;1.90;;
17193;SDS011;8713;48.388;10.928;2022-07-29T11:19:24;2.55;;;1.90;;
17193;SDS011;8713;48.388;10.928;2022-07-29T11:21:54;3.60;;;1.70;;
17193;SDS011;8713;48.388;10.928;2022-07-29T11:23:17;2.55;;;1.77;;
17193;SDS011;8713;48.388;10.928;2022-07-29T11:25:03;3.65;;;1.88;;
17193;SDS011;8713;48.388;10.928;2022-07-29T11:26:23;3.85;;;2.03;;
17193;SDS011;8713;48.388;10.928;2022-07-29T11:27:36;3.55;;;1.90;;
17193;SDS011;8713;48.388;10.928;2022-07-29T11:30:10;4.07;;;1.88;;
17193;SDS011;8713;48.388;10.928;2022-07-29T11:32:51;2.97;;;2.00;;
17193;SDS011;8713;48.388;10.928;2022-07-29T11:34:15;2.28;;;1.80;;
17193;SDS011;8713;48.388;10.928;2022-07-29T11:35:37;3.33;;;2.30;;
17193;SDS011;8713;48.388;10.928;2022-07-29T11:39:30;1.90;;;1.70;;
17193;SDS011;8713;48.388;10.928;2022-07-29T11:40:40;3.03;;;1.85;;
17193;SDS011;8713;48.388;10.928;2022-07-29T11:41:49;2.70;;;1.98;;
17193;SDS011;8713;48.388;10.928;2022-07-29T11:42:59;2.17;;;1.77;;
17193;SDS011;8713;48.388;10.928;2022-07-29T11:44:09;3.83;;;1.75;;
17193;SDS011;8713;48.388;10.928;2022-07-29T11:45:19;2.22;;;1.70;;
17193;SDS011;8713;48.388;10.928;2022-07-29T11:46:47;3.15;;;1.70;;
17193;SDS011;8713;48.388;10.928;2022-07-29T11:47:58;2.80;;;2.13;;
17193;SDS011;8713;48.388;10.928;2022-07-29T11:49:08;2.88;;;2.00;;
17193;SDS011;8713;48.388;10.928;2022-07-29T11:50:28;2.95;;;1.90;;
17193;SDS011;8713;48.388;10.928;2022-07-29T11:51:49;3.33;;;2.40;;
17193;SDS011;8713;48.388;10.928;2022-07-29T11:53:01;1.95;;;1.60;;
17193;SDS011;8713;48.388;10.928;2022-07-29T11:54:29;2.25;;;1.48;;
17193;SDS011;8713;48.388;10.928;2022-07-29T11:55:41;1.98;;;1.60;;
17193;SDS011;8713;48.388;10.928;2022-07-29T11:56:50;2.83;;;1.60;;
17193;SDS011;8713;48.388;10.928;2022-07-29T11:58:00;2.67;;;1.55;;
17193;SDS011;8713;48.388;10.928;2022-07-29T11:59:10;4.90;;;1.55;;
17193;SDS011;8713;48.388;10.928;2022-07-29T12:00:30;3.40;;;2.00;;
17193;SDS011;8713;48.388;10.928;2022-07-29T12:01:57;1.80;;;1.60;;
17193;SDS011;8713;48.388;10.928;2022-07-29T12:03:08;2.65;;;1.63;;
17193;SDS011;8713;48.388;10.928;2022-07-29T12:04:18;2.55;;;1.58;;
17193;SDS011;8713;48.388;10.928;2022-07-29T12:05:34;2.55;;;1.55;;
17193;SDS011;8713;48.388;10.928;2022-07-29T12:06:53;1.73;;;1.38;;
17193;SDS011;8713;48.388;10.928;2022-07-29T12:08:07;3.85;;;1.67;;
17193;SDS011;8713;48.388;10.928;2022-07-29T12:09:23;2.63;;;1.60;;
17193;SDS011;8713;48.388;10.928;2022-07-29T12:10:32;4.25;;;1.65;;
17193;SDS011;8713;48.388;10.928;2022-07-29T12:11:42;2.60;;;1.73;;
17193;SDS011;8713;48.388;10.928;2022-07-29T12:12:51;2.80;;;1.70;;
17193;SDS011;8713;48.388;10.928;2022-07-29T12:14:01;3.50;;;1.50;;
17193;SDS011;8713;48.388;10.928;2022-07-29T12:16:36;1.80;;;1.50;;
17193;SDS011;8713;48.388;10.928;2022-07-29T12:17:45;3.35;;;1.50;;
17193;SDS011;8713;48.388;10.928;2022-07-29T12:18:57;3.20;;;1.70;;
17193;SDS011;8713;48.388;10.928;2022-07-29T12:20:08;1.80;;;1.50;;
17193;SDS011;8713;48.388;10.928;2022-07-29T12:21:17;2.47;;;1.70;;
17193;SDS011;8713;48.388;10.928;2022-07-29T12:22:28;2.35;;;1.40;;
17193;SDS011;8713;48.388;10.928;2022-07-29T12:23:42;2.55;;;1.60;;
17193;SDS011;8713;48.388;10.928;2022-07-29T12:25:07;3.10;;;1.67;;
17193;SDS011;8713;48.388;10.928;2022-07-29T12:26:23;2.10;;;1.60;;
17193;SDS011;8713;48.388;10.928;2022-07-29T12:27:33;2.20;;;1.55;;
17193;SDS011;8713;48.388;10.928;2022-07-29T12:28:42;3.20;;;1.45;;
17193;SDS011;8713;48.388;10.928;2022-07-29T12:29:59;2.65;;;1.50;;
17193;SDS011;8713;48.388;10.928;2022-07-29T12:31:14;2.72;;;1.90;;
17193;SDS011;8713;48.388;10.928;2022-07-29T12:32:23;3.50;;;1.80;;
17193;SDS011;8713;48.388;10.928;2022-07-29T12:33:53;4.68;;;1.73;;
17193;SDS011;8713;48.388;10.928;2022-07-29T12:35:07;2.95;;;1.88;;
17193;SDS011;8713;48.388;10.928;2022-07-29T12:36:25;5.10;;;2.10;;
17193;SDS011;8713;48.388;10.928;2022-07-29T12:37:35;4.55;;;1.77;;
17193;SDS011;8713;48.388;10.928;2022-07-29T12:38:46;2.95;;;2.15;;
17193;SDS011;8713;48.388;10.928;2022-07-29T12:39:56;2.78;;;1.90;;
17193;SDS011;8713;48.388;10.928;2022-07-29T12:41:05;4.68;;;1.90;;
17193;SDS011;8713;48.388;10.928;2022-07-29T12:42:15;2.17;;;1.75;;
17193;SDS011;8713;48.388;10.928;2022-07-29T12:43:25;3.17;;;2.00;;
17193;SDS011;8713;48.388;10.928;2022-07-29T12:44:48;2.03;;;1.77;;
17193;SDS011;8713;48.388;10.928;2022-07-29T12:46:10;2.97;;;1.92;;
17193;SDS011;8713;48.388;10.928;2022-07-29T12:47:21;2.75;;;2.13;;
17193;SDS011;8713;48.388;10.928;2022-07-29T12:48:32;4.90;;;2.00;;
17193;SDS011;8713;48.388;10.928;2022-07-29T12:49:46;3.97;;;1.90;;
17193;SDS011;8713;48.388;10.928;2022-07-29T12:51:00;3.80;;;2.17;;
17193;SDS011;8713;48.388;10.928;2022-07-29T12:52:33;5.63;;;2.00;;
17193;SDS011;8713;48.388;10.928;2022-07-29T12:54:01;2.85;;;1.88;;
17193;SDS011;8713;48.388;10.928;2022-07-29T12:55:15;3.17;;;2.00;;
17193;SDS011;8713;48.388;10.928;2022-07-29T12:56:24;3.00;;;1.98;;
17193;SDS011;8713;48.388;10.928;2022-07-29T12:57:44;2.40;;;1.90;;
17193;SDS011;8713;48.388;10.928;2022-07-29T12:58:59;3.38;;;1.80;;
17193;SDS011;8713;48.388;10.928;2022-07-29T13:00:09;3.85;;;1.90;;
17193;SDS011;8713;48.388;10.928;2022-07-29T13:01:21;4.70;;;2.00;;
17193;SDS011;8713;48.388;10.928;2022-07-29T13:02:31;3.53;;;2.10;;
17193;SDS011;8713;48.388;10.928;2022-07-29T13:03:45;3.55;;;1.83;;
17193;SDS011;8713;48.388;10.928;2022-07-29T13:05:09;1.98;;;1.63;;
17193;SDS011;8713;48.388;10.928;2022-07-29T13:07:53;4.03;;;2.10;;
17193;SDS011;8713;48.388;10.928;2022-07-29T13:10:20;2.65;;;1.73;;
17193;SDS011;8713;48.388;10.928;2022-07-29T13:11:43;2.17;;;1.98;;
17193;SDS011;8713;48.388;10.928;2022-07-29T13:13:05;3.42;;;2.20;;
17193;SDS011;8713;48.388;10.928;2022-07-29T13:14:35;2.63;;;1.77;;
17193;SDS011;8713;48.388;10.928;2022-07-29T13:16:06;3.25;;;1.70;;
17193;SDS011;8713;48.388;10.928;2022-07-29T13:17:20;2.42;;;1.90;;
17193;SDS011;8713;48.388;10.928;2022-07-29T13:18:36;4.57;;;2.00;;
17193;SDS011;8713;48.388;10.928;2022-07-29T13:19:50;4.25;;;1.80;;
17193;SDS011;8713;48.388;10.928;2022-07-29T13:21:11;3.38;;;1.90;;
17193;SDS011;8713;48.388;10.928;2022-07-29T13:22:23;3.15;;;2.00;;
17193;SDS011;8713;48.388;10.928;2022-07-29T13:23:33;3.63;;;1.80;;
17193;SDS011;8713;48.388;10.928;2022-07-29T13:24:46;3.00;;;1.95;;
17193;SDS011;8713;48.388;10.928;2022-07-29T13:26:06;3.83;;;2.33;;
17193;SDS011;8713;48.388;10.928;2022-07-29T13:27:17;2.30;;;1.85;;
17193;SDS011;8713;48.388;10.928;2022-07-29T13:28:33;2.15;;;1.77;;
17193;SDS011;8713;48.388;10.928;2022-07-29T13:29:43;3.92;;;2.22;;
17193;SDS011;8713;48.388;10.928;2022-07-29T13:30:52;3.45;;;1.98;;
17193;SDS011;8713;48.388;10.928;2022-07-29T13:32:02;4.35;;;2.10;;
17193;SDS011;8713;48.388;10.928;2022-07-29T13:33:12;5.15;;;1.90;;
17193;SDS011;8713;48.388;10.928;2022-07-29T13:34:21;4.13;;;1.80;;
17193;SDS011;8713;48.388;10.928;2022-07-29T13:35:32;3.88;;;1.88;;
17193;SDS011;8713;48.388;10.928;2022-07-29T13:36:42;3.25;;;1.55;;
17193;SDS011;8713;48.388;10.928;2022-07-29T13:37:52;3.50;;;1.52;;
17193;SDS011;8713;48.388;10.928;2022-07-29T13:39:01;2.58;;;1.50;;
17193;SDS011;8713;48.388;10.928;2022-07-29T13:40:12;1.88;;;1.65;;
17193;SDS011;8713;48.388;10.928;2022-07-29T13:41:22;3.35;;;1.60;;
17193;SDS011;8713;48.388;10.928;2022-07-29T13:42:32;3.78;;;1.80;;
17193;SDS011;8713;48.388;10.928;2022-07-29T13:43:42;4.05;;;1.60;;
17193;SDS011;8713;48.388;10.928;2022-07-29T13:44:51;1.40;;;1.27;;
17193;SDS011;8713;48.388;10.928;2022-07-29T13:46:01;3.05;;;1.67;;
17193;SDS011;8713;48.388;10.928;2022-07-29T13:47:10;1.85;;;1.42;;
17193;SDS011;8713;48.388;10.928;2022-07-29T13:48:20;4.25;;;1.63;;
17193;SDS011;8713;48.388;10.928;2022-07-29T13:49:29;3.03;;;1.77;;
17193;SDS011;8713;48.388;10.928;2022-07-29T13:50:39;3.10;;;1.55;;
17193;SDS011;8713;48.388;10.928;2022-07-29T13:51:48;2.25;;;1.60;;
17193;SDS011;8713;48.388;10.928;2022-07-29T13:52:58;1.70;;;1.50;;
17193;SDS011;8713;48.388;10.928;2022-07-29T13:54:07;5.40;;;1.90;;